Seville, Spain
Current Conditions -  °F | °C
As of 2:00 PM on Monday 22 Dec 2014 (Local Time) from LEZL Reporting Station
Clear Clear  
Wind Chill: 61°   Ceiling: Unl
Heat Index: 61°   Visibility: 6mi
Dew Point: 50°   Wind: 12mph
Humidity: 68%   Direction: 40°NE
Pressure: 30.33"   Gusts: NA
Location:  37.38°N, 6°W
Report Text: LEZL 221300Z 04010KT CAVOK 16/10 Q1027 NOSIG
Loading
Personal Weather Stations






























Interactive Weather Map New forecast layout! Learn more

10-Day Weather Forecast

Advertisements
Track Severe Weather on mobile